createdAt,value
2022-11-18T00:00:52.113Z,12.30
2022-11-18T00:03:18.536Z,12.29
2022-11-18T00:05:44.865Z,12.27
2022-11-18T00:08:11.221Z,12.25
2022-11-18T00:10:37.556Z,12.24
2022-11-18T00:13:03.933Z,12.21
2022-11-18T00:15:31.868Z,12.21
2022-11-18T00:17:56.643Z,12.18
2022-11-18T00:20:23.002Z,12.18
2022-11-18T00:22:49.346Z,12.17
2022-11-18T00:25:15.709Z,12.16
2022-11-18T00:27:42.064Z,12.15
2022-11-18T00:30:08.426Z,12.14
2022-11-18T00:32:34.844Z,12.12
2022-11-18T00:35:01.198Z,12.11
2022-11-18T00:37:27.551Z,12.09
2022-11-18T00:39:53.910Z,12.07
2022-11-18T00:42:20.339Z,12.06
2022-11-18T00:44:46.700Z,12.03
2022-11-18T00:47:13.046Z,12.05
2022-11-18T00:49:39.416Z,12.03
2022-11-18T00:52:05.861Z,12.03
2022-11-18T00:54:32.205Z,12.02
2022-11-18T00:56:58.566Z,12.01
2022-11-18T00:59:24.916Z,12.01
2022-11-18T01:01:51.350Z,12.00
2022-11-18T01:04:17.652Z,12.00
2022-11-18T01:06:43.984Z,12.00
2022-11-18T01:09:10.351Z,11.99
2022-11-18T01:11:36.750Z,11.98
2022-11-18T01:14:03.099Z,11.98
2022-11-18T01:16:29.427Z,11.96
2022-11-18T01:18:56.527Z,11.95
2022-11-18T01:21:22.146Z,11.95
2022-11-18T01:23:48.526Z,11.95
2022-11-18T01:26:14.846Z,11.94
2022-11-18T01:28:41.250Z,11.94
2022-11-18T01:31:07.575Z,11.94
2022-11-18T01:33:33.952Z,11.94
2022-11-18T01:36:00.310Z,11.95
2022-11-18T01:38:26.685Z,11.94
2022-11-18T01:40:53.013Z,11.95
2022-11-18T01:43:19.474Z,11.95
2022-11-18T01:45:45.806Z,11.94
2022-11-18T01:48:12.186Z,11.93
2022-11-18T01:50:38.588Z,11.94
2022-11-18T01:53:05.041Z,11.95
2022-11-18T01:55:31.380Z,11.95
2022-11-18T01:57:57.728Z,11.95
2022-11-18T02:00:24.107Z,11.96
2022-11-18T02:02:50.482Z,11.96
2022-11-18T02:05:16.817Z,11.97
2022-11-18T02:07:43.317Z,11.97
2022-11-18T02:10:09.585Z,11.97
2022-11-18T02:12:35.929Z,11.98
2022-11-18T02:15:02.360Z,11.99
2022-11-18T02:17:28.702Z,11.99
2022-11-18T02:19:55.053Z,12.00
2022-11-18T02:22:21.403Z,11.99
2022-11-18T02:24:48.079Z,12.00
2022-11-18T02:27:14.462Z,12.00
2022-11-18T02:29:40.784Z,12.00
2022-11-18T02:32:07.167Z,12.00
2022-11-18T02:34:33.537Z,12.01
2022-11-18T02:36:59.906Z,12.00
2022-11-18T02:39:26.231Z,12.01
2022-11-18T02:41:52.710Z,12.00
2022-11-18T02:44:19.079Z,11.99
2022-11-18T02:46:45.446Z,11.99
2022-11-18T02:49:11.788Z,11.99
2022-11-18T02:51:38.135Z,11.98
2022-11-18T02:54:04.496Z,11.97
2022-11-18T02:56:30.855Z,11.96
2022-11-18T02:58:57.218Z,11.96
2022-11-18T03:01:23.603Z,11.96
2022-11-18T03:03:49.920Z,11.96
2022-11-18T03:06:16.308Z,11.96
2022-11-18T03:08:42.672Z,11.96
2022-11-18T03:11:09.025Z,11.96
2022-11-18T03:13:35.425Z,11.96
2022-11-18T03:16:01.805Z,11.97
2022-11-18T03:18:28.153Z,11.96
2022-11-18T03:20:54.568Z,11.96
2022-11-18T03:23:20.920Z,11.97
2022-11-18T03:25:47.300Z,11.97
2022-11-18T03:28:13.671Z,11.97
2022-11-18T03:30:40.014Z,11.98
2022-11-18T03:33:06.349Z,11.98
2022-11-18T03:35:32.703Z,11.99
2022-11-18T03:37:59.062Z,12.00
2022-11-18T03:40:25.452Z,11.99
2022-11-18T03:42:51.817Z,12.00
2022-11-18T03:45:18.153Z,12.01
2022-11-18T03:47:44.530Z,12.00
2022-11-18T03:50:10.900Z,12.00
2022-11-18T03:52:37.252Z,12.00
2022-11-18T03:55:03.629Z,12.00
2022-11-18T03:57:29.994Z,12.01
2022-11-18T03:59:56.369Z,12.00
2022-11-18T04:02:22.696Z,12.00
2022-11-18T04:04:49.132Z,11.99
2022-11-18T04:07:15.535Z,11.99
2022-11-18T04:09:41.829Z,11.99
2022-11-18T04:12:08.189Z,11.98
2022-11-18T04:14:34.565Z,11.98
2022-11-18T04:17:00.927Z,11.97
2022-11-18T04:19:27.272Z,11.97
2022-11-18T04:21:53.631Z,11.97
2022-11-18T04:24:20.020Z,11.96
2022-11-18T04:26:46.380Z,11.96
2022-11-18T04:29:12.733Z,11.95
2022-11-18T04:31:39.093Z,11.95
2022-11-18T04:34:05.441Z,11.94
2022-11-18T04:36:31.806Z,11.93
2022-11-18T04:38:58.222Z,11.92
2022-11-18T04:41:24.563Z,11.91
2022-11-18T04:43:50.933Z,11.91
2022-11-18T04:46:17.342Z,11.91
2022-11-18T04:48:43.686Z,11.91
2022-11-18T04:51:10.022Z,11.91
2022-11-18T04:53:36.418Z,11.90
2022-11-18T04:56:02.773Z,11.88
2022-11-18T04:58:29.164Z,11.88
2022-11-18T05:00:55.539Z,11.88
2022-11-18T05:03:21.881Z,11.89
2022-11-18T05:05:48.213Z,11.88
2022-11-18T05:08:14.564Z,11.89
2022-11-18T05:10:40.920Z,11.88
2022-11-18T05:13:07.269Z,11.90
2022-11-18T05:15:33.603Z,11.89
2022-11-18T05:17:59.953Z,11.90
2022-11-18T05:20:26.307Z,11.90
2022-11-18T05:22:52.691Z,11.91
2022-11-18T05:25:19.047Z,11.91
2022-11-18T05:27:45.396Z,11.91
2022-11-18T05:30:11.755Z,11.92
2022-11-18T05:32:38.139Z,11.93
2022-11-18T05:35:04.511Z,11.94
2022-11-18T05:37:30.914Z,11.94
2022-11-18T05:39:57.267Z,11.95
2022-11-18T05:42:23.659Z,11.97
2022-11-18T05:44:54.654Z,11.98
2022-11-18T05:47:16.399Z,12.00
2022-11-18T05:49:42.744Z,12.00
2022-11-18T05:52:09.126Z,12.03
2022-11-18T05:54:35.457Z,12.04
2022-11-18T05:57:01.866Z,12.06
2022-11-18T05:59:28.204Z,12.15
2022-11-18T06:01:54.566Z,12.48
2022-11-18T06:04:21.063Z,12.27
2022-11-18T06:06:47.478Z,12.01
2022-11-18T06:09:13.809Z,11.81
2022-11-18T06:11:40.174Z,11.61
2022-11-18T06:14:06.571Z,11.49
2022-11-18T06:16:37.904Z,11.45
2022-11-18T06:18:59.287Z,11.38
2022-11-18T06:21:25.688Z,11.34
2022-11-18T06:23:52.027Z,11.30
2022-11-18T06:26:18.382Z,11.31
2022-11-18T06:28:44.750Z,11.24
2022-11-18T06:31:11.154Z,11.24
2022-11-18T06:33:37.646Z,11.25
2022-11-18T06:36:04.004Z,11.29
2022-11-18T06:38:30.359Z,11.32
2022-11-18T06:40:56.759Z,11.30
2022-11-18T06:43:23.164Z,11.31
2022-11-18T06:45:49.534Z,11.33
2022-11-18T06:48:15.892Z,11.34
2022-11-18T06:50:42.332Z,11.36
2022-11-18T06:53:08.692Z,11.36
2022-11-18T06:55:35.090Z,11.34
2022-11-18T06:58:01.452Z,11.38
2022-11-18T07:00:27.831Z,11.42
2022-11-18T07:02:54.184Z,11.42
2022-11-18T07:05:20.581Z,11.39
2022-11-18T07:07:47.045Z,11.37
2022-11-18T07:10:13.327Z,11.35
2022-11-18T07:12:39.658Z,11.31
2022-11-18T07:15:06.055Z,11.30
2022-11-18T07:17:32.427Z,11.33
2022-11-18T07:19:58.811Z,11.36
2022-11-18T07:22:25.160Z,11.36
2022-11-18T07:24:51.505Z,11.35
2022-11-18T07:27:17.833Z,11.38
2022-11-18T07:29:44.214Z,11.43
2022-11-18T07:32:10.548Z,11.48
2022-11-18T07:34:36.899Z,11.51
2022-11-18T07:37:03.258Z,11.52
2022-11-18T07:39:29.605Z,11.57
2022-11-18T07:41:56.048Z,11.57
2022-11-18T07:44:22.439Z,11.60
2022-11-18T07:46:48.784Z,11.65
2022-11-18T07:49:15.470Z,11.69
2022-11-18T07:51:41.532Z,11.77
2022-11-18T07:54:07.917Z,11.81
2022-11-18T07:56:34.346Z,11.84
2022-11-18T07:59:00.741Z,11.85
2022-11-18T08:01:27.124Z,11.89
2022-11-18T08:03:53.460Z,11.90
2022-11-18T08:06:19.798Z,11.93
2022-11-18T08:08:46.188Z,11.93
2022-11-18T08:11:15.200Z,11.92
2022-11-18T08:13:38.896Z,11.89
2022-11-18T08:16:05.255Z,11.86
2022-11-18T08:18:31.604Z,11.87
2022-11-18T08:20:57.960Z,11.85
2022-11-18T08:23:30.184Z,11.85
2022-11-18T08:25:50.986Z,11.87
2022-11-18T08:28:17.430Z,11.92
2022-11-18T08:30:43.709Z,11.87
2022-11-18T08:33:10.137Z,11.93
2022-11-18T08:35:36.505Z,11.96
2022-11-18T08:38:02.894Z,11.98
2022-11-18T08:40:29.223Z,12.01
2022-11-18T08:42:55.597Z,11.99
2022-11-18T08:45:21.959Z,12.00
2022-11-18T08:47:48.314Z,12.16
2022-11-18T08:50:14.645Z,12.27
2022-11-18T08:52:41.022Z,12.45
2022-11-18T08:55:07.397Z,12.47
2022-11-18T08:57:33.743Z,12.48
2022-11-18T09:00:00.212Z,12.45
2022-11-18T09:02:26.459Z,12.40
2022-11-18T09:04:52.794Z,12.34
2022-11-18T09:07:19.211Z,12.37
2022-11-18T09:09:45.490Z,12.28
2022-11-18T09:12:11.880Z,12.23
2022-11-18T09:15:13.018Z,12.18
2022-11-18T09:17:04.606Z,12.16
2022-11-18T09:19:47.927Z,12.11
2022-11-18T09:21:57.337Z,12.08
2022-11-18T09:24:23.709Z,12.07
2022-11-18T09:26:50.097Z,12.07
2022-11-18T09:29:16.418Z,12.00
2022-11-18T09:31:42.778Z,11.98
2022-11-18T09:34:09.107Z,11.99
2022-11-18T09:36:35.542Z,11.97
2022-11-18T09:39:01.910Z,11.95
2022-11-18T09:41:28.535Z,11.91
2022-11-18T09:43:54.894Z,11.94
2022-11-18T09:46:21.291Z,11.93
2022-11-18T09:48:47.624Z,11.92
2022-11-18T09:51:13.977Z,11.91
2022-11-18T09:53:40.341Z,11.93
2022-11-18T09:56:06.785Z,11.95
2022-11-18T09:58:33.117Z,12.07
2022-11-18T10:00:59.471Z,12.28
2022-11-18T10:03:25.830Z,12.42
2022-11-18T10:05:52.225Z,12.64
2022-11-18T10:08:18.571Z,12.97
2022-11-18T10:10:44.914Z,13.25
2022-11-18T10:13:11.249Z,13.46
2022-11-18T10:15:37.648Z,13.86
2022-11-18T10:18:03.990Z,14.38
2022-11-18T10:20:30.371Z,14.66
2022-11-18T10:22:56.735Z,14.93
2022-11-18T10:25:23.116Z,15.32
2022-11-18T10:27:49.473Z,15.87
2022-11-18T10:30:15.848Z,16.28
2022-11-18T10:32:42.173Z,16.86
2022-11-18T10:35:08.679Z,17.03
2022-11-18T10:38:00.635Z,17.10
2022-11-18T10:40:01.407Z,17.26
2022-11-18T10:42:27.768Z,17.68
2022-11-18T10:44:54.149Z,18.20
2022-11-18T10:47:20.521Z,18.73
2022-11-18T10:49:46.863Z,19.27
2022-11-18T10:52:13.209Z,19.70
2022-11-18T10:54:39.597Z,19.76
2022-11-18T10:57:05.950Z,19.56
2022-11-18T10:59:32.338Z,19.54
2022-11-18T11:01:58.772Z,19.58
2022-11-18T11:04:25.040Z,19.58
2022-11-18T11:06:51.393Z,19.52
2022-11-18T11:09:17.772Z,19.24
2022-11-18T11:11:44.131Z,18.96
2022-11-18T11:14:10.547Z,18.66
2022-11-18T11:16:36.894Z,18.44
2022-11-18T11:19:03.257Z,18.31
2022-11-18T11:21:29.694Z,18.32
2022-11-18T11:23:55.992Z,18.52
2022-11-18T11:28:48.661Z,18.36
2022-11-18T11:31:15.009Z,18.22
2022-11-18T11:33:41.370Z,18.18
2022-11-18T11:36:07.768Z,18.17
2022-11-18T11:38:34.124Z,18.01
2022-11-18T11:41:00.509Z,17.90
2022-11-18T11:43:26.848Z,17.79
2022-11-18T11:45:53.239Z,17.66
2022-11-18T11:48:19.574Z,17.54
2022-11-18T11:50:52.896Z,17.44
2022-11-18T11:53:12.303Z,17.31
2022-11-18T11:55:38.687Z,17.08
2022-11-18T11:58:05.079Z,16.98
2022-11-18T12:00:31.414Z,16.84
2022-11-18T12:02:57.812Z,16.70
2022-11-18T12:05:24.149Z,16.62
2022-11-18T12:07:50.471Z,16.60
2022-11-18T12:10:16.857Z,16.49
2022-11-18T12:12:43.196Z,16.35
2022-11-18T12:15:09.537Z,16.23
2022-11-18T12:17:35.857Z,16.16
2022-11-18T12:20:02.273Z,16.14
2022-11-18T12:22:28.586Z,16.12
2022-11-18T12:24:54.972Z,16.10
2022-11-18T12:27:21.292Z,16.09
2022-11-18T12:29:47.636Z,16.09
2022-11-18T12:32:14.014Z,16.04
2022-11-18T12:34:40.354Z,16.03
2022-11-18T12:37:06.715Z,16.00
2022-11-18T12:39:33.096Z,15.98
2022-11-18T12:41:59.414Z,15.95
2022-11-18T12:44:25.784Z,15.93
2022-11-18T12:46:52.211Z,15.95
2022-11-18T12:49:18.829Z,15.92
2022-11-18T12:51:44.920Z,15.89
2022-11-18T12:54:13.887Z,15.88
2022-11-18T12:56:37.640Z,15.84
2022-11-18T12:59:03.990Z,15.79
2022-11-18T13:01:30.354Z,15.77
2022-11-18T13:03:56.708Z,15.74
2022-11-18T13:06:23.067Z,15.76
2022-11-18T13:08:49.451Z,15.75
2022-11-18T13:11:15.869Z,15.75
2022-11-18T13:13:42.202Z,15.72
2022-11-18T13:16:09.826Z,15.71
2022-11-18T13:18:34.925Z,15.69
2022-11-18T13:21:01.291Z,15.68
2022-11-18T13:23:27.640Z,15.69
2022-11-18T13:25:53.998Z,15.72
2022-11-18T13:28:20.387Z,15.77
2022-11-18T13:30:46.702Z,15.81
2022-11-18T13:33:14.800Z,15.83
2022-11-18T13:35:39.513Z,15.82
2022-11-18T13:38:05.910Z,15.79
2022-11-18T13:40:32.259Z,15.79
2022-11-18T13:42:58.621Z,15.77
2022-11-18T13:45:24.945Z,15.74
2022-11-18T13:47:51.309Z,15.71
2022-11-18T13:50:17.669Z,15.70
2022-11-18T13:52:44.031Z,15.67
2022-11-18T13:55:10.402Z,15.65
2022-11-18T13:57:36.785Z,15.63
2022-11-18T14:00:03.115Z,15.60
2022-11-18T14:02:29.458Z,15.60
2022-11-18T14:04:55.785Z,15.57
2022-11-18T14:07:22.205Z,15.56
2022-11-18T14:09:48.511Z,15.54
2022-11-18T14:12:14.849Z,15.51
2022-11-18T14:14:41.208Z,15.50
2022-11-18T14:17:07.552Z,15.50
2022-11-18T14:19:33.949Z,15.48
2022-11-18T14:22:00.324Z,15.47
2022-11-18T14:24:26.676Z,15.44
2022-11-18T14:26:53.029Z,15.41
2022-11-18T14:29:19.602Z,15.38
2022-11-18T14:31:45.693Z,15.37
2022-11-18T14:34:12.064Z,15.37
2022-11-18T14:36:41.054Z,15.38
2022-11-18T14:39:25.429Z,15.37
2022-11-18T14:41:31.233Z,15.37
2022-11-18T14:43:57.557Z,15.36
2022-11-18T14:46:23.913Z,15.34
2022-11-18T14:48:50.231Z,15.33
2022-11-18T14:51:16.767Z,15.32
2022-11-18T14:53:43.129Z,15.32
2022-11-18T14:56:09.520Z,15.31
2022-11-18T14:58:35.836Z,15.30
2022-11-18T15:01:02.218Z,15.28
2022-11-18T15:03:28.512Z,15.29
2022-11-18T15:05:54.902Z,15.31
2022-11-18T15:08:21.256Z,15.30
2022-11-18T15:10:47.605Z,15.28
2022-11-18T15:13:13.959Z,15.29
2022-11-18T15:15:40.335Z,15.38
2022-11-18T15:18:06.695Z,15.46
2022-11-18T15:20:33.033Z,15.52
2022-11-18T15:22:59.384Z,15.59
2022-11-18T15:25:25.720Z,15.64
2022-11-18T15:27:52.041Z,15.66
2022-11-18T15:30:18.449Z,15.70
2022-11-18T15:32:44.818Z,15.73
2022-11-18T15:35:11.182Z,15.75
2022-11-18T15:37:37.554Z,15.76
2022-11-18T15:40:03.929Z,15.75
2022-11-18T15:42:30.251Z,15.74
2022-11-18T15:44:56.666Z,15.72
2022-11-18T15:47:22.976Z,15.72
2022-11-18T15:49:49.367Z,15.70
2022-11-18T15:52:15.719Z,15.67
2022-11-18T15:54:42.056Z,15.68
2022-11-18T15:57:08.431Z,15.67
2022-11-18T15:59:34.818Z,15.70
2022-11-18T16:02:01.178Z,15.69
2022-11-18T16:04:27.561Z,15.69
2022-11-18T16:06:53.988Z,15.68
2022-11-18T16:09:20.558Z,15.68
2022-11-18T16:11:46.625Z,15.69
2022-11-18T16:14:13.011Z,15.69
2022-11-18T16:16:39.332Z,15.70
2022-11-18T16:19:05.714Z,15.69
2022-11-18T16:21:32.060Z,15.70
2022-11-18T16:23:58.415Z,15.69
2022-11-18T16:26:24.784Z,15.68
2022-11-18T16:28:51.130Z,15.69
2022-11-18T16:31:17.460Z,15.69
2022-11-18T16:33:43.808Z,15.68
2022-11-18T16:36:10.206Z,15.66
2022-11-18T16:38:36.545Z,15.62
2022-11-18T16:41:02.867Z,15.58
2022-11-18T16:43:29.254Z,15.54
2022-11-18T16:45:55.632Z,15.49
2022-11-18T16:48:22.008Z,15.44
2022-11-18T16:50:48.336Z,15.38
2022-11-18T16:53:14.675Z,15.33
2022-11-18T16:55:40.995Z,15.25
2022-11-18T16:58:07.383Z,15.24
2022-11-18T17:01:09.329Z,15.22
2022-11-18T17:03:00.092Z,15.20
2022-11-18T17:05:26.475Z,15.16
2022-11-18T17:07:52.918Z,15.11
2022-11-18T17:10:19.158Z,15.10
2022-11-18T17:12:45.587Z,15.06
2022-11-18T17:15:11.949Z,15.01
2022-11-18T17:17:38.394Z,15.01
2022-11-18T17:20:04.748Z,14.97
2022-11-18T17:22:31.091Z,14.94
2022-11-18T17:25:02.212Z,14.97
2022-11-18T17:27:23.871Z,14.98
2022-11-18T17:29:50.189Z,14.94
2022-11-18T17:32:16.572Z,14.93
2022-11-18T17:34:42.927Z,14.89
2022-11-18T17:37:09.309Z,14.85
2022-11-18T17:39:35.664Z,14.83
2022-11-18T17:42:02.058Z,14.78
2022-11-18T17:44:28.405Z,14.79
2022-11-18T17:46:54.750Z,14.79
2022-11-18T17:49:21.130Z,14.78
2022-11-18T17:51:47.491Z,14.75
2022-11-18T17:54:13.851Z,14.71
2022-11-18T17:56:40.185Z,14.69
2022-11-18T17:59:06.511Z,14.70
2022-11-18T18:01:32.963Z,14.68
2022-11-18T18:03:59.208Z,14.64
2022-11-18T18:06:25.576Z,14.59
2022-11-18T18:08:51.933Z,14.61
2022-11-18T18:11:18.309Z,14.62
2022-11-18T18:13:44.631Z,14.63
2022-11-18T18:16:11.025Z,14.62
2022-11-18T18:18:37.349Z,14.57
2022-11-18T18:21:05.454Z,14.50
2022-11-18T18:23:30.108Z,14.47
2022-11-18T18:25:56.476Z,14.46
2022-11-18T18:28:22.801Z,14.46
2022-11-18T18:30:49.184Z,14.41
2022-11-18T18:33:15.534Z,14.41
2022-11-18T18:35:41.924Z,14.42
2022-11-18T18:38:08.288Z,14.41
2022-11-18T18:40:34.670Z,14.40
2022-11-18T18:43:01.027Z,14.39
2022-11-18T18:45:27.449Z,14.38
2022-11-18T18:47:53.780Z,14.33
2022-11-18T18:50:23.792Z,14.31
2022-11-18T18:52:46.484Z,14.29
2022-11-18T18:55:12.865Z,14.30
2022-11-18T18:57:39.207Z,14.32
2022-11-18T19:00:05.591Z,14.34
2022-11-18T19:02:31.948Z,14.37
2022-11-18T19:04:58.288Z,14.53
2022-11-18T19:07:24.811Z,14.53
2022-11-18T19:09:51.132Z,14.53
2022-11-18T19:12:17.496Z,14.54
2022-11-18T19:14:43.825Z,14.53
2022-11-18T19:17:12.145Z,14.53
2022-11-18T19:19:36.562Z,14.54
2022-11-18T19:22:03.050Z,14.54
2022-11-18T19:26:55.615Z,14.53
2022-11-18T19:29:25.604Z,14.51
2022-11-18T19:31:48.317Z,14.49
2022-11-18T19:34:14.657Z,14.51
2022-11-18T19:36:40.978Z,14.51
2022-11-18T19:39:07.379Z,14.48
2022-11-18T19:41:33.692Z,14.45
2022-11-18T19:44:00.080Z,14.47
2022-11-18T19:46:30.446Z,14.49
2022-11-18T19:48:52.825Z,14.51
2022-11-18T19:51:19.137Z,14.52
2022-11-18T19:53:45.480Z,14.52
2022-11-18T19:56:11.841Z,14.52
2022-11-18T19:58:38.215Z,14.53
2022-11-18T20:01:04.613Z,14.53
2022-11-18T20:03:30.977Z,14.53
2022-11-18T20:05:57.298Z,14.56
2022-11-18T20:08:23.683Z,14.57
2022-11-18T20:10:50.069Z,14.58
2022-11-18T20:13:16.510Z,14.58
2022-11-18T20:15:42.878Z,14.58
2022-11-18T20:18:09.256Z,14.58
2022-11-18T20:20:35.620Z,14.58
2022-11-18T20:23:01.994Z,14.59
2022-11-18T20:25:28.362Z,14.58
2022-11-18T20:27:54.739Z,14.57
2022-11-18T20:30:21.093Z,14.57
2022-11-18T20:32:47.745Z,14.57
2022-11-18T20:35:14.098Z,14.57
2022-11-18T20:37:40.527Z,14.56
2022-11-18T20:40:06.911Z,14.55
2022-11-18T20:42:33.300Z,14.53
2022-11-18T20:44:59.621Z,14.54
2022-11-18T20:47:26.068Z,14.52
2022-11-18T20:49:52.385Z,14.53
2022-11-18T20:52:18.768Z,14.52
2022-11-18T20:54:45.167Z,14.50
2022-11-18T20:57:11.507Z,14.49
2022-11-18T20:59:37.824Z,14.48
2022-11-18T21:02:04.232Z,14.48
2022-11-18T21:04:30.582Z,14.47
2022-11-18T21:06:56.969Z,14.48
2022-11-18T21:09:23.282Z,14.46
2022-11-18T21:11:49.653Z,14.46
2022-11-18T21:14:21.635Z,14.44
2022-11-18T21:16:42.487Z,14.42
2022-11-18T21:19:08.819Z,14.40
2022-11-18T21:21:35.166Z,14.38
2022-11-18T21:24:01.559Z,14.36
2022-11-18T21:26:27.899Z,14.36
2022-11-18T21:28:54.256Z,14.34
2022-11-18T21:31:23.209Z,14.32
2022-11-18T21:33:46.959Z,14.33
2022-11-18T21:36:13.386Z,14.33
2022-11-18T21:38:39.699Z,14.34
2022-11-18T21:41:06.626Z,14.33
2022-11-18T21:44:03.342Z,14.33
2022-11-18T21:45:59.336Z,14.32
2022-11-18T21:48:25.754Z,14.32
2022-11-18T21:50:52.068Z,14.32
2022-11-18T21:53:18.453Z,14.32
2022-11-18T21:55:45.042Z,14.31
2022-11-18T21:58:11.422Z,14.31
2022-11-18T22:00:37.827Z,14.31
2022-11-18T22:03:04.150Z,14.29
2022-11-18T22:05:30.470Z,14.30
2022-11-18T22:07:56.856Z,14.25
2022-11-18T22:10:23.178Z,14.20
2022-11-18T22:12:49.565Z,14.13
2022-11-18T22:15:15.879Z,14.11
2022-11-18T22:17:42.254Z,14.12
2022-11-18T22:20:08.611Z,14.09
2022-11-18T22:22:34.999Z,14.05
2022-11-18T22:25:01.317Z,13.99
2022-11-18T22:27:27.720Z,14.00
2022-11-18T22:29:54.045Z,14.00
2022-11-18T22:32:20.399Z,14.01
2022-11-18T22:34:51.594Z,14.02
2022-11-18T22:37:13.145Z,14.04
2022-11-18T22:39:39.487Z,14.05
2022-11-18T22:42:05.878Z,14.05
2022-11-18T22:44:32.204Z,14.07
2022-11-18T22:46:58.550Z,14.09
2022-11-18T22:49:24.874Z,14.09
2022-11-18T22:51:51.215Z,14.09
2022-11-18T22:56:43.915Z,14.08
2022-11-18T22:59:10.234Z,14.09
2022-11-18T23:01:36.628Z,14.06
2022-11-18T23:04:02.979Z,14.05
2022-11-18T23:06:29.333Z,14.04
2022-11-18T23:08:55.688Z,14.02
2022-11-18T23:11:22.083Z,14.02
2022-11-18T23:13:48.437Z,14.01
2022-11-18T23:16:14.768Z,14.00
2022-11-18T23:18:41.146Z,14.01
2022-11-18T23:21:07.556Z,14.02
2022-11-18T23:23:33.918Z,14.00
2022-11-18T23:26:00.291Z,13.99
2022-11-18T23:28:26.645Z,13.98
2022-11-18T23:30:52.988Z,13.98
2022-11-18T23:33:19.375Z,13.98
2022-11-18T23:35:45.783Z,13.96
2022-11-18T23:38:12.139Z,13.97
2022-11-18T23:40:38.487Z,13.98
2022-11-18T23:43:04.810Z,13.98
2022-11-18T23:45:31.212Z,13.98
2022-11-18T23:47:57.546Z,13.98
2022-11-18T23:50:23.897Z,13.98
2022-11-18T23:52:50.269Z,13.98
2022-11-18T23:55:16.652Z,13.98
2022-11-18T23:57:42.988Z,13.97
